sensor_id;sensor_type;location;lat;lon;timestamp;P1;durP1;ratioP1;P2;durP2;ratioP2
69750;SDS011;57335;52.288;6.056;2022-11-14T00:00:52;84.28;;;20.60;;
69750;SDS011;57335;52.288;6.056;2022-11-14T00:05:45;67.43;;;18.13;;
69750;SDS011;57335;52.288;6.056;2022-11-14T00:08:21;65.53;;;17.60;;
69750;SDS011;57335;52.288;6.056;2022-11-14T00:10:49;64.13;;;19.27;;
69750;SDS011;57335;52.288;6.056;2022-11-14T00:13:17;81.75;;;19.30;;
69750;SDS011;57335;52.288;6.056;2022-11-14T00:15:46;63.58;;;19.77;;
69750;SDS011;57335;52.288;6.056;2022-11-14T00:18:14;75.53;;;20.85;;
69750;SDS011;57335;52.288;6.056;2022-11-14T00:20:40;70.70;;;19.48;;
69750;SDS011;57335;52.288;6.056;2022-11-14T00:25:33;70.72;;;19.13;;
69750;SDS011;57335;52.288;6.056;2022-11-14T00:27:59;70.72;;;18.67;;
69750;SDS011;57335;52.288;6.056;2022-11-14T00:30:26;75.40;;;20.27;;
69750;SDS011;57335;52.288;6.056;2022-11-14T00:32:53;83.10;;;19.63;;
69750;SDS011;57335;52.288;6.056;2022-11-14T00:35:19;73.68;;;19.00;;
69750;SDS011;57335;52.288;6.056;2022-11-14T00:37:45;78.55;;;20.35;;
69750;SDS011;57335;52.288;6.056;2022-11-14T00:40:11;81.93;;;21.15;;
69750;SDS011;57335;52.288;6.056;2022-11-14T00:42:38;83.90;;;22.05;;
69750;SDS011;57335;52.288;6.056;2022-11-14T00:45:04;85.30;;;20.48;;
69750;SDS011;57335;52.288;6.056;2022-11-14T00:47:31;73.20;;;20.00;;
69750;SDS011;57335;52.288;6.056;2022-11-14T00:49:57;86.43;;;21.15;;
69750;SDS011;57335;52.288;6.056;2022-11-14T00:52:24;84.97;;;21.13;;
69750;SDS011;57335;52.288;6.056;2022-11-14T00:54:50;85.18;;;21.67;;
69750;SDS011;57335;52.288;6.056;2022-11-14T00:57:16;68.90;;;18.50;;
69750;SDS011;57335;52.288;6.056;2022-11-14T00:59:43;77.85;;;18.65;;
69750;SDS011;57335;52.288;6.056;2022-11-14T01:02:09;82.30;;;19.98;;
69750;SDS011;57335;52.288;6.056;2022-11-14T01:04:35;75.50;;;19.58;;
69750;SDS011;57335;52.288;6.056;2022-11-14T01:07:02;80.90;;;18.88;;
69750;SDS011;57335;52.288;6.056;2022-11-14T01:09:28;68.97;;;18.05;;
69750;SDS011;57335;52.288;6.056;2022-11-14T01:14:21;50.90;;;14.70;;
69750;SDS011;57335;52.288;6.056;2022-11-14T01:16:47;46.92;;;14.32;;
69750;SDS011;57335;52.288;6.056;2022-11-14T01:19:13;45.17;;;14.40;;
69750;SDS011;57335;52.288;6.056;2022-11-14T01:21:40;44.53;;;14.20;;
69750;SDS011;57335;52.288;6.056;2022-11-14T01:24:06;55.67;;;14.82;;
69750;SDS011;57335;52.288;6.056;2022-11-14T01:28:59;55.83;;;15.93;;
69750;SDS011;57335;52.288;6.056;2022-11-14T01:31:25;48.63;;;15.30;;
69750;SDS011;57335;52.288;6.056;2022-11-14T01:33:52;53.00;;;16.20;;
69750;SDS011;57335;52.288;6.056;2022-11-14T01:36:19;51.40;;;14.65;;
69750;SDS011;57335;52.288;6.056;2022-11-14T01:38:46;44.58;;;13.60;;
69750;SDS011;57335;52.288;6.056;2022-11-14T01:41:17;39.35;;;13.23;;
69750;SDS011;57335;52.288;6.056;2022-11-14T01:43:43;98.15;;;16.17;;
69750;SDS011;57335;52.288;6.056;2022-11-14T01:46:18;30.35;;;11.55;;
69750;SDS011;57335;52.288;6.056;2022-11-14T01:49:05;31.50;;;10.95;;
69750;SDS011;57335;52.288;6.056;2022-11-14T01:51:47;31.92;;;11.35;;
69750;SDS011;57335;52.288;6.056;2022-11-14T01:54:22;126.35;;;15.55;;
69750;SDS011;57335;52.288;6.056;2022-11-14T01:56:54;225.90;;;19.08;;
69750;SDS011;57335;52.288;6.056;2022-11-14T01:59:30;382.27;;;30.70;;
69750;SDS011;57335;52.288;6.056;2022-11-14T02:02:03;42.13;;;11.82;;
69750;SDS011;57335;52.288;6.056;2022-11-14T02:04:38;73.15;;;12.93;;
69750;SDS011;57335;52.288;6.056;2022-11-14T02:07:08;76.82;;;12.27;;
69750;SDS011;57335;52.288;6.056;2022-11-14T02:09:37;82.75;;;13.07;;
69750;SDS011;57335;52.288;6.056;2022-11-14T02:12:07;38.55;;;9.95;;
69750;SDS011;57335;52.288;6.056;2022-11-14T02:14:37;26.77;;;9.45;;
69750;SDS011;57335;52.288;6.056;2022-11-14T02:17:04;80.80;;;13.35;;
69750;SDS011;57335;52.288;6.056;2022-11-14T02:22:36;35.00;;;10.25;;
69750;SDS011;57335;52.288;6.056;2022-11-14T02:25:04;27.95;;;9.68;;
69750;SDS011;57335;52.288;6.056;2022-11-14T02:27:32;43.75;;;10.35;;
69750;SDS011;57335;52.288;6.056;2022-11-14T02:30:03;57.15;;;12.07;;
69750;SDS011;57335;52.288;6.056;2022-11-14T02:32:31;97.00;;;12.50;;
69750;SDS011;57335;52.288;6.056;2022-11-14T02:35:18;104.45;;;12.82;;
69750;SDS011;57335;52.288;6.056;2022-11-14T02:40:10;65.13;;;10.02;;
69750;SDS011;57335;52.288;6.056;2022-11-14T02:42:37;90.57;;;11.38;;
69750;SDS011;57335;52.288;6.056;2022-11-14T02:45:03;93.80;;;11.57;;
69750;SDS011;57335;52.288;6.056;2022-11-14T02:47:30;101.90;;;11.93;;
69750;SDS011;57335;52.288;6.056;2022-11-14T02:49:56;73.57;;;9.98;;
69750;SDS011;57335;52.288;6.056;2022-11-14T02:52:23;45.75;;;9.43;;
69750;SDS011;57335;52.288;6.056;2022-11-14T02:54:49;84.97;;;10.15;;
69750;SDS011;57335;52.288;6.056;2022-11-14T02:57:19;75.63;;;10.10;;
69750;SDS011;57335;52.288;6.056;2022-11-14T02:59:46;82.60;;;10.73;;
69750;SDS011;57335;52.288;6.056;2022-11-14T03:02:12;77.57;;;10.95;;
69750;SDS011;57335;52.288;6.056;2022-11-14T03:04:38;62.10;;;9.50;;
69750;SDS011;57335;52.288;6.056;2022-11-14T03:07:05;56.15;;;9.40;;
69750;SDS011;57335;52.288;6.056;2022-11-14T03:11:57;83.72;;;10.20;;
69750;SDS011;57335;52.288;6.056;2022-11-14T03:14:24;133.82;;;11.73;;
69750;SDS011;57335;52.288;6.056;2022-11-14T03:16:50;104.30;;;11.13;;
69750;SDS011;57335;52.288;6.056;2022-11-14T03:19:16;48.83;;;8.90;;
69750;SDS011;57335;52.288;6.056;2022-11-14T03:21:43;108.50;;;11.68;;
69750;SDS011;57335;52.288;6.056;2022-11-14T03:24:09;97.20;;;11.23;;
69750;SDS011;57335;52.288;6.056;2022-11-14T03:26:36;93.65;;;13.18;;
69750;SDS011;57335;52.288;6.056;2022-11-14T03:29:02;77.30;;;11.20;;
69750;SDS011;57335;52.288;6.056;2022-11-14T03:33:55;72.43;;;10.10;;
69750;SDS011;57335;52.288;6.056;2022-11-14T03:36:21;114.35;;;12.85;;
69750;SDS011;57335;52.288;6.056;2022-11-14T03:38:47;69.80;;;10.63;;
69750;SDS011;57335;52.288;6.056;2022-11-14T03:43:40;128.40;;;13.30;;
69750;SDS011;57335;52.288;6.056;2022-11-14T03:46:07;62.38;;;9.77;;
69750;SDS011;57335;52.288;6.056;2022-11-14T03:48:33;97.82;;;12.23;;
69750;SDS011;57335;52.288;6.056;2022-11-14T03:50:59;205.13;;;16.92;;
69750;SDS011;57335;52.288;6.056;2022-11-14T03:53:26;76.65;;;11.23;;
69750;SDS011;57335;52.288;6.056;2022-11-14T03:55:52;52.60;;;9.18;;
69750;SDS011;57335;52.288;6.056;2022-11-14T03:58:18;91.60;;;10.32;;
69750;SDS011;57335;52.288;6.056;2022-11-14T04:00:45;45.80;;;9.02;;
69750;SDS011;57335;52.288;6.056;2022-11-14T04:05:37;73.05;;;9.57;;
69750;SDS011;57335;52.288;6.056;2022-11-14T04:08:04;67.40;;;9.60;;
69750;SDS011;57335;52.288;6.056;2022-11-14T04:10:31;96.03;;;10.32;;
69750;SDS011;57335;52.288;6.056;2022-11-14T04:12:58;89.35;;;9.70;;
69750;SDS011;57335;52.288;6.056;2022-11-14T04:15:24;65.75;;;9.70;;
69750;SDS011;57335;52.288;6.056;2022-11-14T04:17:50;72.80;;;10.48;;
69750;SDS011;57335;52.288;6.056;2022-11-14T04:20:16;55.28;;;10.05;;
69750;SDS011;57335;52.288;6.056;2022-11-14T04:22:43;62.35;;;9.18;;
69750;SDS011;57335;52.288;6.056;2022-11-14T04:25:11;62.40;;;9.48;;
69750;SDS011;57335;52.288;6.056;2022-11-14T04:27:37;67.82;;;9.98;;
69750;SDS011;57335;52.288;6.056;2022-11-14T04:30:04;73.47;;;10.48;;
69750;SDS011;57335;52.288;6.056;2022-11-14T04:32:31;32.72;;;8.15;;
69750;SDS011;57335;52.288;6.056;2022-11-14T04:34:58;48.10;;;9.30;;
69750;SDS011;57335;52.288;6.056;2022-11-14T04:39:50;34.78;;;8.45;;
69750;SDS011;57335;52.288;6.056;2022-11-14T04:42:17;67.25;;;9.63;;
69750;SDS011;57335;52.288;6.056;2022-11-14T04:44:43;53.22;;;9.23;;
69750;SDS011;57335;52.288;6.056;2022-11-14T04:47:09;70.85;;;10.35;;
69750;SDS011;57335;52.288;6.056;2022-11-14T04:49:36;64.00;;;10.00;;
69750;SDS011;57335;52.288;6.056;2022-11-14T04:52:02;134.35;;;12.57;;
69750;SDS011;57335;52.288;6.056;2022-11-14T04:54:28;83.35;;;11.27;;
69750;SDS011;57335;52.288;6.056;2022-11-14T04:56:55;64.13;;;9.40;;
69750;SDS011;57335;52.288;6.056;2022-11-14T04:59:21;50.25;;;9.43;;
69750;SDS011;57335;52.288;6.056;2022-11-14T05:01:47;60.60;;;10.32;;
69750;SDS011;57335;52.288;6.056;2022-11-14T05:04:14;54.38;;;10.52;;
69750;SDS011;57335;52.288;6.056;2022-11-14T05:09:08;87.60;;;11.50;;
69750;SDS011;57335;52.288;6.056;2022-11-14T05:11:34;47.03;;;9.15;;
69750;SDS011;57335;52.288;6.056;2022-11-14T05:14:00;91.53;;;12.18;;
69750;SDS011;57335;52.288;6.056;2022-11-14T05:16:27;151.40;;;14.55;;
69750;SDS011;57335;52.288;6.056;2022-11-14T05:18:53;83.38;;;11.55;;
69750;SDS011;57335;52.288;6.056;2022-11-14T05:21:19;170.20;;;15.63;;
69750;SDS011;57335;52.288;6.056;2022-11-14T05:23:46;190.35;;;17.35;;
69750;SDS011;57335;52.288;6.056;2022-11-14T05:26:14;188.23;;;16.10;;
69750;SDS011;57335;52.288;6.056;2022-11-14T05:28:41;240.80;;;19.15;;
69750;SDS011;57335;52.288;6.056;2022-11-14T05:31:09;208.27;;;17.38;;
69750;SDS011;57335;52.288;6.056;2022-11-14T05:33:36;180.45;;;16.58;;
69750;SDS011;57335;52.288;6.056;2022-11-14T05:36:03;165.77;;;13.98;;
69750;SDS011;57335;52.288;6.056;2022-11-14T05:38:32;53.55;;;9.35;;
69750;SDS011;57335;52.288;6.056;2022-11-14T05:40:58;75.15;;;9.73;;
69750;SDS011;57335;52.288;6.056;2022-11-14T05:43:28;92.70;;;10.82;;
69750;SDS011;57335;52.288;6.056;2022-11-14T05:45:57;75.80;;;10.65;;
69750;SDS011;57335;52.288;6.056;2022-11-14T05:48:27;50.33;;;9.75;;
69750;SDS011;57335;52.288;6.056;2022-11-14T05:50:55;64.45;;;10.65;;
69750;SDS011;57335;52.288;6.056;2022-11-14T05:53:23;66.53;;;10.93;;
69750;SDS011;57335;52.288;6.056;2022-11-14T05:55:50;57.83;;;10.65;;
69750;SDS011;57335;52.288;6.056;2022-11-14T05:58:16;63.78;;;10.95;;
69750;SDS011;57335;52.288;6.056;2022-11-14T06:00:43;59.58;;;11.88;;
69750;SDS011;57335;52.288;6.056;2022-11-14T06:03:19;58.25;;;9.95;;
69750;SDS011;57335;52.288;6.056;2022-11-14T06:05:45;59.40;;;10.38;;
69750;SDS011;57335;52.288;6.056;2022-11-14T06:08:11;29.40;;;8.85;;
69750;SDS011;57335;52.288;6.056;2022-11-14T06:10:38;70.32;;;11.25;;
69750;SDS011;57335;52.288;6.056;2022-11-14T06:13:04;50.63;;;9.57;;
69750;SDS011;57335;52.288;6.056;2022-11-14T06:15:30;55.88;;;10.02;;
69750;SDS011;57335;52.288;6.056;2022-11-14T06:17:57;68.63;;;10.18;;
69750;SDS011;57335;52.288;6.056;2022-11-14T06:20:23;44.38;;;9.05;;
69750;SDS011;57335;52.288;6.056;2022-11-14T06:22:52;100.75;;;12.48;;
69750;SDS011;57335;52.288;6.056;2022-11-14T06:25:19;45.50;;;9.55;;
69750;SDS011;57335;52.288;6.056;2022-11-14T06:30:12;36.80;;;8.05;;
69750;SDS011;57335;52.288;6.056;2022-11-14T06:35:05;32.30;;;7.80;;
69750;SDS011;57335;52.288;6.056;2022-11-14T06:39:59;60.22;;;9.10;;
69750;SDS011;57335;52.288;6.056;2022-11-14T06:42:25;50.40;;;9.13;;
69750;SDS011;57335;52.288;6.056;2022-11-14T06:44:51;69.65;;;10.32;;
69750;SDS011;57335;52.288;6.056;2022-11-14T06:47:18;65.53;;;10.93;;
69750;SDS011;57335;52.288;6.056;2022-11-14T06:49:44;51.63;;;10.00;;
69750;SDS011;57335;52.288;6.056;2022-11-14T06:52:10;35.30;;;8.77;;
69750;SDS011;57335;52.288;6.056;2022-11-14T06:54:36;62.72;;;11.20;;
69750;SDS011;57335;52.288;6.056;2022-11-14T06:57:03;62.63;;;10.32;;
69750;SDS011;57335;52.288;6.056;2022-11-14T06:59:30;58.42;;;10.07;;
69750;SDS011;57335;52.288;6.056;2022-11-14T07:01:57;76.53;;;10.57;;
69750;SDS011;57335;52.288;6.056;2022-11-14T07:04:23;55.38;;;9.52;;
69750;SDS011;57335;52.288;6.056;2022-11-14T07:06:49;77.45;;;10.57;;
69750;SDS011;57335;52.288;6.056;2022-11-14T07:09:16;71.93;;;9.85;;
69750;SDS011;57335;52.288;6.056;2022-11-14T07:11:42;70.80;;;10.75;;
69750;SDS011;57335;52.288;6.056;2022-11-14T07:14:08;53.60;;;9.60;;
69750;SDS011;57335;52.288;6.056;2022-11-14T07:16:35;63.72;;;10.02;;
69750;SDS011;57335;52.288;6.056;2022-11-14T07:19:04;49.65;;;8.85;;
69750;SDS011;57335;52.288;6.056;2022-11-14T07:21:32;52.17;;;10.57;;
69750;SDS011;57335;52.288;6.056;2022-11-14T07:23:59;48.28;;;9.63;;
69750;SDS011;57335;52.288;6.056;2022-11-14T07:26:26;53.70;;;9.15;;
69750;SDS011;57335;52.288;6.056;2022-11-14T07:28:52;68.72;;;10.10;;
69750;SDS011;57335;52.288;6.056;2022-11-14T07:31:26;64.63;;;9.93;;
69750;SDS011;57335;52.288;6.056;2022-11-14T07:33:52;37.65;;;9.82;;
69750;SDS011;57335;52.288;6.056;2022-11-14T07:36:19;54.95;;;10.20;;
69750;SDS011;57335;52.288;6.056;2022-11-14T07:38:46;66.60;;;10.77;;
69750;SDS011;57335;52.288;6.056;2022-11-14T07:43:39;82.65;;;10.45;;
69750;SDS011;57335;52.288;6.056;2022-11-14T07:46:07;40.42;;;8.73;;
69750;SDS011;57335;52.288;6.056;2022-11-14T07:48:40;57.67;;;10.07;;
69750;SDS011;57335;52.288;6.056;2022-11-14T07:51:08;111.90;;;11.60;;
69750;SDS011;57335;52.288;6.056;2022-11-14T07:56:06;48.65;;;9.88;;
69750;SDS011;57335;52.288;6.056;2022-11-14T07:58:34;57.28;;;10.27;;
69750;SDS011;57335;52.288;6.056;2022-11-14T08:01:01;54.75;;;9.70;;
69750;SDS011;57335;52.288;6.056;2022-11-14T08:03:29;69.03;;;11.65;;
69750;SDS011;57335;52.288;6.056;2022-11-14T08:06:09;79.22;;;12.13;;
69750;SDS011;57335;52.288;6.056;2022-11-14T08:08:37;72.03;;;10.98;;
69750;SDS011;57335;52.288;6.056;2022-11-14T08:11:03;87.65;;;12.30;;
69750;SDS011;57335;52.288;6.056;2022-11-14T08:13:30;68.40;;;10.18;;
69750;SDS011;57335;52.288;6.056;2022-11-14T08:16:02;42.95;;;9.82;;
69750;SDS011;57335;52.288;6.056;2022-11-14T08:18:38;102.18;;;12.05;;
69750;SDS011;57335;52.288;6.056;2022-11-14T08:21:05;117.25;;;13.10;;
69750;SDS011;57335;52.288;6.056;2022-11-14T08:25:58;57.30;;;9.43;;
69750;SDS011;57335;52.288;6.056;2022-11-14T08:28:25;50.60;;;10.77;;
69750;SDS011;57335;52.288;6.056;2022-11-14T08:30:59;54.85;;;10.48;;
69750;SDS011;57335;52.288;6.056;2022-11-14T08:33:26;85.85;;;12.30;;
69750;SDS011;57335;52.288;6.056;2022-11-14T08:35:52;58.60;;;10.65;;
69750;SDS011;57335;52.288;6.056;2022-11-14T08:38:18;58.55;;;10.05;;
69750;SDS011;57335;52.288;6.056;2022-11-14T08:40:45;72.78;;;11.57;;
69750;SDS011;57335;52.288;6.056;2022-11-14T08:43:11;34.60;;;9.85;;
69750;SDS011;57335;52.288;6.056;2022-11-14T08:45:37;42.70;;;10.68;;
69750;SDS011;57335;52.288;6.056;2022-11-14T08:48:04;31.50;;;9.73;;
69750;SDS011;57335;52.288;6.056;2022-11-14T08:50:30;37.75;;;10.38;;
69750;SDS011;57335;52.288;6.056;2022-11-14T08:52:56;38.13;;;10.13;;
69750;SDS011;57335;52.288;6.056;2022-11-14T08:55:23;33.45;;;9.75;;
69750;SDS011;57335;52.288;6.056;2022-11-14T08:57:49;38.05;;;9.60;;
69750;SDS011;57335;52.288;6.056;2022-11-14T09:00:18;29.27;;;9.43;;
69750;SDS011;57335;52.288;6.056;2022-11-14T09:02:45;22.48;;;8.82;;
69750;SDS011;57335;52.288;6.056;2022-11-14T09:07:37;25.10;;;9.43;;
69750;SDS011;57335;52.288;6.056;2022-11-14T09:10:04;26.27;;;8.90;;
69750;SDS011;57335;52.288;6.056;2022-11-14T09:12:31;27.40;;;9.50;;
69750;SDS011;57335;52.288;6.056;2022-11-14T09:14:58;33.90;;;10.23;;
69750;SDS011;57335;52.288;6.056;2022-11-14T09:17:24;26.90;;;10.00;;
69750;SDS011;57335;52.288;6.056;2022-11-14T09:22:17;36.47;;;12.05;;
69750;SDS011;57335;52.288;6.056;2022-11-14T09:27:09;32.13;;;11.75;;
69750;SDS011;57335;52.288;6.056;2022-11-14T09:29:36;39.33;;;13.48;;
69750;SDS011;57335;52.288;6.056;2022-11-14T09:32:02;32.13;;;13.27;;
69750;SDS011;57335;52.288;6.056;2022-11-14T09:34:29;31.15;;;12.95;;
69750;SDS011;57335;52.288;6.056;2022-11-14T09:39:21;43.40;;;14.45;;
69750;SDS011;57335;52.288;6.056;2022-11-14T09:44:23;30.85;;;11.70;;
69750;SDS011;57335;52.288;6.056;2022-11-14T09:47:13;36.20;;;12.80;;
69750;SDS011;57335;52.288;6.056;2022-11-14T09:49:46;36.15;;;13.85;;
69750;SDS011;57335;52.288;6.056;2022-11-14T09:52:35;32.92;;;12.60;;
69750;SDS011;57335;52.288;6.056;2022-11-14T09:55:11;29.27;;;12.07;;
69750;SDS011;57335;52.288;6.056;2022-11-14T09:57:41;28.60;;;10.32;;
69750;SDS011;57335;52.288;6.056;2022-11-14T10:00:16;37.63;;;14.48;;
69750;SDS011;57335;52.288;6.056;2022-11-14T10:03:00;33.47;;;13.07;;
69750;SDS011;57335;52.288;6.056;2022-11-14T10:08:21;30.45;;;12.85;;
69750;SDS011;57335;52.288;6.056;2022-11-14T10:16:14;30.52;;;12.20;;
69750;SDS011;57335;52.288;6.056;2022-11-14T10:19:02;20.55;;;9.00;;
69750;SDS011;57335;52.288;6.056;2022-11-14T10:21:43;25.85;;;10.63;;
69750;SDS011;57335;52.288;6.056;2022-11-14T10:27:05;23.17;;;10.35;;
69750;SDS011;57335;52.288;6.056;2022-11-14T10:29:41;19.80;;;8.52;;
69750;SDS011;57335;52.288;6.056;2022-11-14T10:35:13;27.48;;;11.13;;
69750;SDS011;57335;52.288;6.056;2022-11-14T10:48:47;24.15;;;10.30;;
69750;SDS011;57335;52.288;6.056;2022-11-14T10:59:11;19.00;;;8.07;;
69750;SDS011;57335;52.288;6.056;2022-11-14T11:01:38;23.65;;;10.15;;
69750;SDS011;57335;52.288;6.056;2022-11-14T11:07:37;24.35;;;10.10;;
69750;SDS011;57335;52.288;6.056;2022-11-14T11:09:44;21.85;;;9.52;;
69750;SDS011;57335;52.288;6.056;2022-11-14T11:15:19;23.30;;;10.38;;
69750;SDS011;57335;52.288;6.056;2022-11-14T11:20:29;19.35;;;8.45;;
69750;SDS011;57335;52.288;6.056;2022-11-14T11:25:36;24.75;;;10.40;;
69750;SDS011;57335;52.288;6.056;2022-11-14T11:28:05;23.83;;;11.32;;
69750;SDS011;57335;52.288;6.056;2022-11-14T11:30:53;23.50;;;9.32;;
69750;SDS011;57335;52.288;6.056;2022-11-14T11:33:22;23.00;;;9.45;;
69750;SDS011;57335;52.288;6.056;2022-11-14T11:35:52;23.63;;;9.98;;
69750;SDS011;57335;52.288;6.056;2022-11-14T11:38:22;24.98;;;10.32;;
69750;SDS011;57335;52.288;6.056;2022-11-14T11:40:51;23.67;;;10.70;;
69750;SDS011;57335;52.288;6.056;2022-11-14T11:46:15;23.58;;;10.80;;
69750;SDS011;57335;52.288;6.056;2022-11-14T11:48:46;20.17;;;9.38;;
69750;SDS011;57335;52.288;6.056;2022-11-14T11:51:17;23.73;;;9.98;;
69750;SDS011;57335;52.288;6.056;2022-11-14T11:53:57;25.75;;;11.38;;
69750;SDS011;57335;52.288;6.056;2022-11-14T11:56:30;24.00;;;10.18;;
69750;SDS011;57335;52.288;6.056;2022-11-14T11:59:13;22.52;;;9.93;;
69750;SDS011;57335;52.288;6.056;2022-11-14T12:01:43;23.33;;;10.27;;
69750;SDS011;57335;52.288;6.056;2022-11-14T12:04:13;21.15;;;9.40;;
69750;SDS011;57335;52.288;6.056;2022-11-14T12:18:24;21.92;;;9.55;;
69750;SDS011;57335;52.288;6.056;2022-11-14T12:21:33;20.90;;;9.10;;
69750;SDS011;57335;52.288;6.056;2022-11-14T12:27:03;22.83;;;9.57;;
69750;SDS011;57335;52.288;6.056;2022-11-14T12:32:04;20.00;;;9.27;;
69750;SDS011;57335;52.288;6.056;2022-11-14T12:34:36;21.98;;;10.25;;
69750;SDS011;57335;52.288;6.056;2022-11-14T12:37:08;25.45;;;11.40;;
69750;SDS011;57335;52.288;6.056;2022-11-14T12:39:41;21.63;;;10.05;;
69750;SDS011;57335;52.288;6.056;2022-11-14T12:42:09;21.50;;;9.95;;
69750;SDS011;57335;52.288;6.056;2022-11-14T12:44:38;23.15;;;10.35;;
69750;SDS011;57335;52.288;6.056;2022-11-14T13:00:14;25.75;;;12.10;;
69750;SDS011;57335;52.288;6.056;2022-11-14T13:02:59;27.15;;;13.13;;
69750;SDS011;57335;52.288;6.056;2022-11-14T13:06:12;26.80;;;12.65;;
69750;SDS011;57335;52.288;6.056;2022-11-14T13:09:06;30.13;;;13.20;;
69750;SDS011;57335;52.288;6.056;2022-11-14T13:11:48;27.45;;;12.73;;
69750;SDS011;57335;52.288;6.056;2022-11-14T13:14:15;30.00;;;13.93;;
69750;SDS011;57335;52.288;6.056;2022-11-14T13:16:42;26.35;;;12.27;;
69750;SDS011;57335;52.288;6.056;2022-11-14T13:24:09;29.80;;;13.60;;
69750;SDS011;57335;52.288;6.056;2022-11-14T13:26:37;32.25;;;14.10;;
69750;SDS011;57335;52.288;6.056;2022-11-14T13:29:05;38.72;;;15.07;;
69750;SDS011;57335;52.288;6.056;2022-11-14T13:36:33;27.45;;;13.65;;
69750;SDS011;57335;52.288;6.056;2022-11-14T13:41:51;30.65;;;14.23;;
69750;SDS011;57335;52.288;6.056;2022-11-14T13:47:43;34.97;;;13.55;;
69750;SDS011;57335;52.288;6.056;2022-11-14T13:50:29;30.02;;;13.63;;
69750;SDS011;57335;52.288;6.056;2022-11-14T13:52:58;30.33;;;14.23;;
69750;SDS011;57335;52.288;6.056;2022-11-14T13:55:31;31.88;;;14.70;;
69750;SDS011;57335;52.288;6.056;2022-11-14T13:58:26;28.95;;;14.30;;
69750;SDS011;57335;52.288;6.056;2022-11-14T14:01:20;28.95;;;14.13;;
69750;SDS011;57335;52.288;6.056;2022-11-14T14:04:43;33.78;;;13.90;;
69750;SDS011;57335;52.288;6.056;2022-11-14T14:07:06;32.63;;;14.13;;
69750;SDS011;57335;52.288;6.056;2022-11-14T14:09:49;30.25;;;13.70;;
69750;SDS011;57335;52.288;6.056;2022-11-14T14:12:44;27.10;;;12.32;;
69750;SDS011;57335;52.288;6.056;2022-11-14T14:15:26;28.20;;;12.93;;
69750;SDS011;57335;52.288;6.056;2022-11-14T14:18:01;29.17;;;12.98;;
69750;SDS011;57335;52.288;6.056;2022-11-14T14:20:48;22.85;;;11.20;;
69750;SDS011;57335;52.288;6.056;2022-11-14T14:28:43;23.90;;;11.00;;
69750;SDS011;57335;52.288;6.056;2022-11-14T14:31:33;18.77;;;9.55;;
69750;SDS011;57335;52.288;6.056;2022-11-14T14:34:02;16.27;;;8.05;;
69750;SDS011;57335;52.288;6.056;2022-11-14T14:36:50;19.17;;;9.70;;
69750;SDS011;57335;52.288;6.056;2022-11-14T14:39:22;17.00;;;8.18;;
69750;SDS011;57335;52.288;6.056;2022-11-14T14:41:51;18.08;;;8.90;;
69750;SDS011;57335;52.288;6.056;2022-11-14T14:44:21;20.27;;;9.93;;
69750;SDS011;57335;52.288;6.056;2022-11-14T14:46:48;20.08;;;8.70;;
69750;SDS011;57335;52.288;6.056;2022-11-14T14:49:31;19.23;;;9.63;;
69750;SDS011;57335;52.288;6.056;2022-11-14T14:52:17;21.25;;;9.65;;
69750;SDS011;57335;52.288;6.056;2022-11-14T14:54:52;19.95;;;9.23;;
69750;SDS011;57335;52.288;6.056;2022-11-14T14:57:20;18.42;;;9.32;;
69750;SDS011;57335;52.288;6.056;2022-11-14T15:00:01;20.30;;;9.70;;
69750;SDS011;57335;52.288;6.056;2022-11-14T15:02:31;20.23;;;9.55;;
69750;SDS011;57335;52.288;6.056;2022-11-14T15:04:58;21.55;;;9.68;;
69750;SDS011;57335;52.288;6.056;2022-11-14T15:07:26;19.92;;;8.90;;
69750;SDS011;57335;52.288;6.056;2022-11-14T15:09:55;21.92;;;9.40;;
69750;SDS011;57335;52.288;6.056;2022-11-14T15:12:25;21.58;;;9.70;;
69750;SDS011;57335;52.288;6.056;2022-11-14T15:14:54;20.50;;;8.77;;
69750;SDS011;57335;52.288;6.056;2022-11-14T15:17:21;19.92;;;9.50;;
69750;SDS011;57335;52.288;6.056;2022-11-14T15:19:49;19.85;;;9.80;;
69750;SDS011;57335;52.288;6.056;2022-11-14T15:27:27;20.55;;;9.23;;
69750;SDS011;57335;52.288;6.056;2022-11-14T15:29:56;23.33;;;9.15;;
69750;SDS011;57335;52.288;6.056;2022-11-14T15:32:28;22.38;;;9.90;;
69750;SDS011;57335;52.288;6.056;2022-11-14T15:37:58;22.50;;;9.70;;
69750;SDS011;57335;52.288;6.056;2022-11-14T15:51:43;18.25;;;8.02;;
69750;SDS011;57335;52.288;6.056;2022-11-14T15:56:57;19.88;;;9.15;;
69750;SDS011;57335;52.288;6.056;2022-11-14T15:59:26;19.60;;;8.73;;
69750;SDS011;57335;52.288;6.056;2022-11-14T16:01:58;20.15;;;8.73;;
69750;SDS011;57335;52.288;6.056;2022-11-14T16:04:30;17.90;;;8.40;;
69750;SDS011;57335;52.288;6.056;2022-11-14T16:06:59;20.10;;;8.93;;
69750;SDS011;57335;52.288;6.056;2022-11-14T16:09:25;18.30;;;8.07;;
69750;SDS011;57335;52.288;6.056;2022-11-14T16:11:51;18.95;;;8.88;;
69750;SDS011;57335;52.288;6.056;2022-11-14T16:14:18;20.38;;;9.15;;
69750;SDS011;57335;52.288;6.056;2022-11-14T16:16:44;19.00;;;9.05;;
69750;SDS011;57335;52.288;6.056;2022-11-14T16:19:11;20.80;;;8.43;;
69750;SDS011;57335;52.288;6.056;2022-11-14T16:21:40;19.45;;;9.05;;
69750;SDS011;57335;52.288;6.056;2022-11-14T16:24:40;17.75;;;8.15;;
69750;SDS011;57335;52.288;6.056;2022-11-14T16:26:59;18.38;;;8.48;;
69750;SDS011;57335;52.288;6.056;2022-11-14T16:29:26;19.88;;;8.45;;
69750;SDS011;57335;52.288;6.056;2022-11-14T16:31:53;21.08;;;8.77;;
69750;SDS011;57335;52.288;6.056;2022-11-14T16:34:22;18.73;;;7.72;;
69750;SDS011;57335;52.288;6.056;2022-11-14T16:36:57;18.73;;;8.55;;
69750;SDS011;57335;52.288;6.056;2022-11-14T16:39:26;19.33;;;8.65;;
69750;SDS011;57335;52.288;6.056;2022-11-14T16:41:52;21.35;;;8.82;;
69750;SDS011;57335;52.288;6.056;2022-11-14T16:44:18;19.00;;;8.23;;
69750;SDS011;57335;52.288;6.056;2022-11-14T16:46:45;20.75;;;8.80;;
69750;SDS011;57335;52.288;6.056;2022-11-14T16:49:12;20.38;;;8.80;;
69750;SDS011;57335;52.288;6.056;2022-11-14T16:51:40;20.25;;;8.90;;
69750;SDS011;57335;52.288;6.056;2022-11-14T16:54:18;19.13;;;8.63;;
69750;SDS011;57335;52.288;6.056;2022-11-14T16:56:45;17.98;;;8.20;;
69750;SDS011;57335;52.288;6.056;2022-11-14T16:59:13;20.48;;;9.52;;
69750;SDS011;57335;52.288;6.056;2022-11-14T17:01:39;19.05;;;7.97;;
69750;SDS011;57335;52.288;6.056;2022-11-14T17:04:06;18.02;;;7.45;;
69750;SDS011;57335;52.288;6.056;2022-11-14T17:06:32;20.10;;;8.68;;
69750;SDS011;57335;52.288;6.056;2022-11-14T17:08:58;18.60;;;8.70;;
69750;SDS011;57335;52.288;6.056;2022-11-14T17:11:25;16.52;;;7.35;;
69750;SDS011;57335;52.288;6.056;2022-11-14T17:13:52;19.05;;;8.55;;
69750;SDS011;57335;52.288;6.056;2022-11-14T17:16:19;16.48;;;7.55;;
69750;SDS011;57335;52.288;6.056;2022-11-14T17:21:16;19.23;;;8.60;;
69750;SDS011;57335;52.288;6.056;2022-11-14T17:23:42;21.70;;;10.73;;
69750;SDS011;57335;52.288;6.056;2022-11-14T17:28:36;17.98;;;8.57;;
69750;SDS011;57335;52.288;6.056;2022-11-14T17:31:09;22.52;;;8.95;;
69750;SDS011;57335;52.288;6.056;2022-11-14T17:33:36;22.45;;;10.23;;
69750;SDS011;57335;52.288;6.056;2022-11-14T17:36:07;22.02;;;9.70;;
69750;SDS011;57335;52.288;6.056;2022-11-14T17:38:35;23.13;;;9.90;;
69750;SDS011;57335;52.288;6.056;2022-11-14T17:41:02;23.30;;;10.18;;
69750;SDS011;57335;52.288;6.056;2022-11-14T17:43:29;23.52;;;10.05;;